sensor_id;sensor_type;location;lat;lon;timestamp;pressure;altitude;pressure_sealevel;temperature;humidity
14295;BME280;7231;59.370;18.016;2023-12-20T00:01:25;99310.19;;;0.79;99.86
14295;BME280;7231;59.370;18.016;2023-12-20T00:03:53;99308.66;;;0.63;99.45
14295;BME280;7231;59.370;18.016;2023-12-20T00:06:21;99325.53;;;0.76;99.54
14295;BME280;7231;59.370;18.016;2023-12-20T00:08:49;99324.66;;;0.75;99.99
14295;BME280;7231;59.370;18.016;2023-12-20T00:11:18;99326.97;;;0.69;99.35
14295;BME280;7231;59.370;18.016;2023-12-20T00:13:46;99332.81;;;0.65;99.81
14295;BME280;7231;59.370;18.016;2023-12-20T00:16:17;99322.50;;;0.65;99.98
14295;BME280;7231;59.370;18.016;2023-12-20T00:18:47;99323.38;;;0.65;100.00
14295;BME280;7231;59.370;18.016;2023-12-20T00:21:15;99325.06;;;0.65;99.79
14295;BME280;7231;59.370;18.016;2023-12-20T00:23:43;99311.09;;;0.60;100.00
14295;BME280;7231;59.370;18.016;2023-12-20T00:26:11;99316.00;;;0.54;99.83
14295;BME280;7231;59.370;18.016;2023-12-20T00:28:39;99316.88;;;0.54;100.00
14295;BME280;7231;59.370;18.016;2023-12-20T00:31:08;99320.22;;;0.52;100.00
14295;BME280;7231;59.370;18.016;2023-12-20T00:33:36;99318.50;;;0.52;100.00
14295;BME280;7231;59.370;18.016;2023-12-20T00:36:08;99320.16;;;0.50;100.00
14295;BME280;7231;59.370;18.016;2023-12-20T00:38:36;99308.81;;;0.47;100.00
14295;BME280;7231;59.370;18.016;2023-12-20T00:41:04;99313.34;;;0.52;100.00
14295;BME280;7231;59.370;18.016;2023-12-20T00:43:32;99302.22;;;0.53;100.00
14295;BME280;7231;59.370;18.016;2023-12-20T00:46:00;99296.00;;;0.48;100.00
14295;BME280;7231;59.370;18.016;2023-12-20T00:48:28;99227.81;;;0.02;100.00
14295;BME280;7231;59.370;18.016;2023-12-20T00:50:58;99296.47;;;0.40;100.00
14295;BME280;7231;59.370;18.016;2023-12-20T00:53:27;99298.59;;;0.29;100.00
14295;BME280;7231;59.370;18.016;2023-12-20T00:55:55;99308.16;;;0.31;100.00
14295;BME280;7231;59.370;18.016;2023-12-20T00:58:25;99307.94;;;0.27;100.00
14295;BME280;7231;59.370;18.016;2023-12-20T01:00:54;99318.19;;;0.25;100.00
14295;BME280;7231;59.370;18.016;2023-12-20T01:03:23;99318.19;;;0.25;100.00
14295;BME280;7231;59.370;18.016;2023-12-20T01:05:51;99318.06;;;0.22;100.00
14295;BME280;7231;59.370;18.016;2023-12-20T01:08:19;99313.44;;;0.15;100.00
14295;BME280;7231;59.370;18.016;2023-12-20T01:10:48;99318.59;;;0.15;100.00
14295;BME280;7231;59.370;18.016;2023-12-20T01:13:17;99312.34;;;0.10;100.00
14295;BME280;7231;59.370;18.016;2023-12-20T01:15:45;99309.78;;;0.10;100.00
14295;BME280;7231;59.370;18.016;2023-12-20T01:18:14;99316.56;;;0.08;100.00
14295;BME280;7231;59.370;18.016;2023-12-20T01:20:42;99310.59;;;0.09;100.00
14295;BME280;7231;59.370;18.016;2023-12-20T01:23:10;99260.31;;;-0.21;100.00
14295;BME280;7231;59.370;18.016;2023-12-20T01:25:39;99311.19;;;0.04;100.00
14295;BME280;7231;59.370;18.016;2023-12-20T01:28:08;99308.63;;;0.04;100.00
14295;BME280;7231;59.370;18.016;2023-12-20T01:30:36;99304.22;;;0.01;100.00
14295;BME280;7231;59.370;18.016;2023-12-20T01:33:05;99301.47;;;-0.04;100.00
14295;BME280;7231;59.370;18.016;2023-12-20T01:35:33;99309.06;;;-0.07;100.00
14295;BME280;7231;59.370;18.016;2023-12-20T01:38:01;99303.03;;;-0.07;100.00
14295;BME280;7231;59.370;18.016;2023-12-20T01:40:29;99292.66;;;-0.09;100.00
14295;BME280;7231;59.370;18.016;2023-12-20T01:42:58;99301.25;;;-0.08;100.00
14295;BME280;7231;59.370;18.016;2023-12-20T01:45:28;99299.50;;;-0.09;100.00
14295;BME280;7231;59.370;18.016;2023-12-20T01:47:57;99282.66;;;-0.20;100.00
14295;BME280;7231;59.370;18.016;2023-12-20T01:50:27;99286.19;;;-0.18;100.00
14295;BME280;7231;59.370;18.016;2023-12-20T01:52:57;99269.66;;;-0.23;100.00
14295;BME280;7231;59.370;18.016;2023-12-20T01:55:27;99272.31;;;-0.22;100.00
14295;BME280;7231;59.370;18.016;2023-12-20T01:57:58;99291.28;;;-0.20;100.00
14295;BME280;7231;59.370;18.016;2023-12-20T02:00:29;99279.22;;;-0.21;100.00
14295;BME280;7231;59.370;18.016;2023-12-20T02:03:00;99291.94;;;-0.24;100.00
14295;BME280;7231;59.370;18.016;2023-12-20T02:05:29;99286.66;;;-0.27;100.00
14295;BME280;7231;59.370;18.016;2023-12-20T02:07:57;99288.44;;;-0.26;100.00
14295;BME280;7231;59.370;18.016;2023-12-20T02:10:26;99279.81;;;-0.26;100.00
14295;BME280;7231;59.370;18.016;2023-12-20T02:12:55;99277.31;;;-0.25;100.00
14295;BME280;7231;59.370;18.016;2023-12-20T02:15:23;99281.59;;;-0.25;100.00
14295;BME280;7231;59.370;18.016;2023-12-20T02:17:53;99262.47;;;-0.30;100.00
14295;BME280;7231;59.370;18.016;2023-12-20T02:20:22;99271.41;;;-0.22;100.00
14295;BME280;7231;59.370;18.016;2023-12-20T02:22:51;99267.75;;;-0.27;100.00
14295;BME280;7231;59.370;18.016;2023-12-20T02:25:19;99274.81;;;-0.23;100.00
14295;BME280;7231;59.370;18.016;2023-12-20T02:27:48;99268.84;;;-0.22;100.00
14295;BME280;7231;59.370;18.016;2023-12-20T02:30:17;99268.16;;;-0.18;100.00
14295;BME280;7231;59.370;18.016;2023-12-20T02:32:45;99259.22;;;-0.26;100.00
14295;BME280;7231;59.370;18.016;2023-12-20T02:35:13;99256.91;;;-0.20;100.00
14295;BME280;7231;59.370;18.016;2023-12-20T02:37:42;99267.28;;;-0.19;100.00
14295;BME280;7231;59.370;18.016;2023-12-20T02:40:12;99263.16;;;-0.15;100.00
14295;BME280;7231;59.370;18.016;2023-12-20T02:42:40;99242.22;;;-0.23;100.00
14295;BME280;7231;59.370;18.016;2023-12-20T02:45:08;99260.72;;;-0.12;100.00
14295;BME280;7231;59.370;18.016;2023-12-20T02:47:36;99257.31;;;-0.11;100.00
14295;BME280;7231;59.370;18.016;2023-12-20T02:50:05;99248.59;;;-0.15;100.00
14295;BME280;7231;59.370;18.016;2023-12-20T02:52:34;99242.81;;;-0.09;100.00
14295;BME280;7231;59.370;18.016;2023-12-20T02:55:02;99243.69;;;-0.09;100.00
14295;BME280;7231;59.370;18.016;2023-12-20T02:57:31;99239.38;;;-0.10;100.00
14295;BME280;7231;59.370;18.016;2023-12-20T03:00:00;99239.97;;;-0.15;100.00
14295;BME280;7231;59.370;18.016;2023-12-20T03:02:28;99239.03;;;-0.17;100.00
14295;BME280;7231;59.370;18.016;2023-12-20T03:04:56;99257.31;;;-0.11;100.00
14295;BME280;7231;59.370;18.016;2023-12-20T03:07:27;99253.94;;;-0.10;100.00
14295;BME280;7231;59.370;18.016;2023-12-20T03:09:55;99249.59;;;-0.11;100.00
14295;BME280;7231;59.370;18.016;2023-12-20T03:12:42;99248.78;;;-0.10;100.00
14295;BME280;7231;59.370;18.016;2023-12-20T03:15:10;99241.06;;;-0.10;100.00
14295;BME280;7231;59.370;18.016;2023-12-20T03:17:39;99238.47;;;-0.10;100.00
14295;BME280;7231;59.370;18.016;2023-12-20T03:20:08;99226.41;;;-0.11;100.00
14295;BME280;7231;59.370;18.016;2023-12-20T03:22:36;99232.53;;;-0.09;100.00
14295;BME280;7231;59.370;18.016;2023-12-20T03:25:05;99232.53;;;-0.09;100.00
14295;BME280;7231;59.370;18.016;2023-12-20T03:27:33;99235.16;;;-0.08;100.00
14295;BME280;7231;59.370;18.016;2023-12-20T03:30:03;99224.94;;;-0.06;100.00
14295;BME280;7231;59.370;18.016;2023-12-20T03:32:31;99231.84;;;-0.05;100.00
14295;BME280;7231;59.370;18.016;2023-12-20T03:35:00;99217.19;;;-0.06;100.00
14295;BME280;7231;59.370;18.016;2023-12-20T03:37:28;99217.34;;;-0.03;100.00
14295;BME280;7231;59.370;18.016;2023-12-20T03:39:56;99217.25;;;-0.05;100.00
14295;BME280;7231;59.370;18.016;2023-12-20T03:42:24;99213.00;;;-0.04;100.00
14295;BME280;7231;59.370;18.016;2023-12-20T03:44:52;99208.66;;;-0.05;100.00
14295;BME280;7231;59.370;18.016;2023-12-20T03:47:22;99207.91;;;-0.03;100.00
14295;BME280;7231;59.370;18.016;2023-12-20T03:49:50;99208.78;;;-0.02;100.00
14295;BME280;7231;59.370;18.016;2023-12-20T03:52:18;99202.00;;;0.00;100.00
14295;BME280;7231;59.370;18.016;2023-12-20T03:54:47;99202.03;;;0.02;100.00
14295;BME280;7231;59.370;18.016;2023-12-20T03:57:15;99198.59;;;0.01;100.00
14295;BME280;7231;59.370;18.016;2023-12-20T03:59:43;99213.41;;;0.07;100.00
14295;BME280;7231;59.370;18.016;2023-12-20T04:02:11;99209.97;;;0.06;100.00
14295;BME280;7231;59.370;18.016;2023-12-20T04:04:40;99202.75;;;-0.03;100.00
14295;BME280;7231;59.370;18.016;2023-12-20T04:07:09;99224.75;;;0.10;100.00
14295;BME280;7231;59.370;18.016;2023-12-20T04:09:37;99220.34;;;0.08;100.00
14295;BME280;7231;59.370;18.016;2023-12-20T04:12:06;99220.47;;;0.11;100.00
14295;BME280;7231;59.370;18.016;2023-12-20T04:14:34;99211.03;;;0.11;100.00
14295;BME280;7231;59.370;18.016;2023-12-20T04:17:03;99212.00;;;0.13;100.00
14295;BME280;7231;59.370;18.016;2023-12-20T04:19:31;99209.53;;;0.16;100.00
14295;BME280;7231;59.370;18.016;2023-12-20T04:22:00;99204.13;;;0.10;100.00
14295;BME280;7231;59.370;18.016;2023-12-20T04:24:29;99208.72;;;0.17;100.00
14295;BME280;7231;59.370;18.016;2023-12-20T04:26:57;99211.31;;;0.17;100.00
14295;BME280;7231;59.370;18.016;2023-12-20T04:29:25;99219.09;;;0.19;100.00
14295;BME280;7231;59.370;18.016;2023-12-20T04:31:53;99218.16;;;0.17;100.00
14295;BME280;7231;59.370;18.016;2023-12-20T04:34:22;99218.09;;;0.15;100.00
14295;BME280;7231;59.370;18.016;2023-12-20T04:36:50;99218.78;;;0.11;100.00
14295;BME280;7231;59.370;18.016;2023-12-20T04:39:20;99199.59;;;0.05;100.00
14295;BME280;7231;59.370;18.016;2023-12-20T04:41:48;99195.31;;;0.05;100.00
14295;BME280;7231;59.370;18.016;2023-12-20T04:44:16;99179.38;;;-0.07;100.00
14295;BME280;7231;59.370;18.016;2023-12-20T04:46:45;99184.00;;;0.02;100.00
14295;BME280;7231;59.370;18.016;2023-12-20T04:49:13;99178.50;;;-0.08;100.00
14295;BME280;7231;59.370;18.016;2023-12-20T04:51:41;99157.22;;;-0.23;100.00
14295;BME280;7231;59.370;18.016;2023-12-20T04:54:09;99173.81;;;-0.16;100.00
14295;BME280;7231;59.370;18.016;2023-12-20T04:56:39;99178.22;;;-0.14;100.00
14295;BME280;7231;59.370;18.016;2023-12-20T04:59:07;99181.56;;;-0.16;100.00
14295;BME280;7231;59.370;18.016;2023-12-20T05:01:35;99172.06;;;-0.17;100.00
14295;BME280;7231;59.370;18.016;2023-12-20T05:04:03;99167.78;;;-0.17;100.00
14295;BME280;7231;59.370;18.016;2023-12-20T05:06:31;99161.63;;;-0.20;100.00
14295;BME280;7231;59.370;18.016;2023-12-20T05:09:00;99163.25;;;-0.22;100.00
14295;BME280;7231;59.370;18.016;2023-12-20T05:11:28;99175.19;;;-0.24;100.00
14295;BME280;7231;59.370;18.016;2023-12-20T05:13:57;99161.34;;;-0.26;100.00
14295;BME280;7231;59.370;18.016;2023-12-20T05:16:25;99162.91;;;-0.30;100.00
14295;BME280;7231;59.370;18.016;2023-12-20T05:18:54;99149.16;;;-0.30;100.00
14295;BME280;7231;59.370;18.016;2023-12-20T05:21:24;99156.88;;;-0.30;100.00
14295;BME280;7231;59.370;18.016;2023-12-20T05:23:52;99156.00;;;-0.31;100.00
14295;BME280;7231;59.370;18.016;2023-12-20T05:26:20;99158.50;;;-0.32;100.00
14295;BME280;7231;59.370;18.016;2023-12-20T05:28:48;99153.28;;;-0.34;100.00
14295;BME280;7231;59.370;18.016;2023-12-20T05:31:18;99161.78;;;-0.37;100.00
14295;BME280;7231;59.370;18.016;2023-12-20T05:33:46;99163.41;;;-0.39;100.00
14295;BME280;7231;59.370;18.016;2023-12-20T05:36:15;99155.66;;;-0.39;100.00
14295;BME280;7231;59.370;18.016;2023-12-20T05:38:43;99159.00;;;-0.41;100.00
14295;BME280;7231;59.370;18.016;2023-12-20T05:41:11;99154.66;;;-0.42;100.00
14295;BME280;7231;59.370;18.016;2023-12-20T05:43:40;99158.03;;;-0.43;100.00
14295;BME280;7231;59.370;18.016;2023-12-20T05:46:10;99149.50;;;-0.42;100.00
14295;BME280;7231;59.370;18.016;2023-12-20T05:48:39;99148.75;;;-0.40;100.00
14295;BME280;7231;59.370;18.016;2023-12-20T05:51:11;99150.53;;;-0.39;100.00
14295;BME280;7231;59.370;18.016;2023-12-20T05:53:39;99147.13;;;-0.38;100.00
14295;BME280;7231;59.370;18.016;2023-12-20T05:56:07;99143.81;;;-0.35;100.00
14295;BME280;7231;59.370;18.016;2023-12-20T05:58:36;99144.00;;;-0.30;100.00
14295;BME280;7231;59.370;18.016;2023-12-20T06:01:04;99138.88;;;-0.30;100.00
14295;BME280;7231;59.370;18.016;2023-12-20T06:03:34;99115.84;;;-0.47;100.00
14295;BME280;7231;59.370;18.016;2023-12-20T06:06:06;99080.75;;;-0.64;100.00
14295;BME280;7231;59.370;18.016;2023-12-20T06:08:42;99131.06;;;-0.32;100.00
14295;BME280;7231;59.370;18.016;2023-12-20T06:11:11;99120.78;;;-0.32;100.00
14295;BME280;7231;59.370;18.016;2023-12-20T06:13:40;99117.38;;;-0.31;100.00
14295;BME280;7231;59.370;18.016;2023-12-20T06:16:08;99121.78;;;-0.28;100.00
14295;BME280;7231;59.370;18.016;2023-12-20T06:18:36;99100.25;;;-0.30;100.00
14295;BME280;7231;59.370;18.016;2023-12-20T06:21:07;99103.06;;;-0.24;100.00
14295;BME280;7231;59.370;18.016;2023-12-20T06:23:35;99103.22;;;-0.21;100.00
14295;BME280;7231;59.370;18.016;2023-12-20T06:26:03;99107.66;;;-0.17;100.00
14295;BME280;7231;59.370;18.016;2023-12-20T06:28:31;99106.84;;;-0.16;100.00
14295;BME280;7231;59.370;18.016;2023-12-20T06:30:59;99103.59;;;-0.12;100.00
14295;BME280;7231;59.370;18.016;2023-12-20T06:33:28;99107.25;;;-0.07;100.00
14295;BME280;7231;59.370;18.016;2023-12-20T06:35:57;99091.78;;;-0.07;100.00
14295;BME280;7231;59.370;18.016;2023-12-20T06:38:27;99096.41;;;0.02;100.00
14295;BME280;7231;59.370;18.016;2023-12-20T06:40:55;99094.03;;;0.06;100.00
14295;BME280;7231;59.370;18.016;2023-12-20T06:43:25;99100.94;;;0.07;100.00
14295;BME280;7231;59.370;18.016;2023-12-20T06:46:12;99089.00;;;0.09;100.00
14295;BME280;7231;59.370;18.016;2023-12-20T06:48:41;99088.38;;;0.15;100.00
14295;BME280;7231;59.370;18.016;2023-12-20T06:51:11;99083.16;;;0.13;100.00
14295;BME280;7231;59.370;18.016;2023-12-20T06:53:41;99082.22;;;0.11;100.00
14295;BME280;7231;59.370;18.016;2023-12-20T06:56:10;99096.97;;;0.15;100.00
14295;BME280;7231;59.370;18.016;2023-12-20T06:58:44;99068.38;;;0.09;100.00
14295;BME280;7231;59.370;18.016;2023-12-20T07:01:13;99080.81;;;0.19;100.00
14295;BME280;7231;59.370;18.016;2023-12-20T07:03:41;99088.75;;;0.24;100.00
14295;BME280;7231;59.370;18.016;2023-12-20T07:06:10;99087.16;;;0.27;100.00
14295;BME280;7231;59.370;18.016;2023-12-20T07:08:40;99089.63;;;0.24;100.00
14295;BME280;7231;59.370;18.016;2023-12-20T07:11:09;99106.97;;;0.28;100.00
14295;BME280;7231;59.370;18.016;2023-12-20T07:13:37;99097.53;;;0.29;100.00
14295;BME280;7231;59.370;18.016;2023-12-20T07:16:06;99090.50;;;0.25;100.00
14295;BME280;7231;59.370;18.016;2023-12-20T07:18:34;99096.91;;;0.35;100.00
14295;BME280;7231;59.370;18.016;2023-12-20T07:21:03;99097.03;;;0.38;100.00
14295;BME280;7231;59.370;18.016;2023-12-20T07:23:31;99095.50;;;0.43;100.00
14295;BME280;7231;59.370;18.016;2023-12-20T07:25:59;99091.34;;;0.46;100.00
14295;BME280;7231;59.370;18.016;2023-12-20T07:28:29;99083.88;;;0.52;100.00
14295;BME280;7231;59.370;18.016;2023-12-20T07:30:57;99084.88;;;0.56;100.00
14295;BME280;7231;59.370;18.016;2023-12-20T07:33:25;99075.56;;;0.59;100.00
14295;BME280;7231;59.370;18.016;2023-12-20T07:35:53;99073.72;;;0.57;100.00
14295;BME280;7231;59.370;18.016;2023-12-20T07:38:21;99066.06;;;0.58;100.00
14295;BME280;7231;59.370;18.016;2023-12-20T07:40:50;99062.78;;;0.62;100.00
14295;BME280;7231;59.370;18.016;2023-12-20T07:43:18;99055.09;;;0.64;100.00
14295;BME280;7231;59.370;18.016;2023-12-20T07:45:47;99043.78;;;0.60;100.00
14295;BME280;7231;59.370;18.016;2023-12-20T07:48:16;98830.31;;;-0.63;100.00
14295;BME280;7231;59.370;18.016;2023-12-20T07:50:44;99006.22;;;0.45;100.00
14295;BME280;7231;59.370;18.016;2023-12-20T07:53:12;99047.78;;;0.75;100.00
14295;BME280;7231;59.370;18.016;2023-12-20T07:55:40;99042.66;;;0.76;100.00
14295;BME280;7231;59.370;18.016;2023-12-20T07:58:10;99049.69;;;0.80;100.00
14295;BME280;7231;59.370;18.016;2023-12-20T08:00:38;99040.25;;;0.81;100.00
14295;BME280;7231;59.370;18.016;2023-12-20T08:03:07;99037.69;;;0.81;100.00
14295;BME280;7231;59.370;18.016;2023-12-20T08:05:35;99030.78;;;0.80;100.00
14295;BME280;7231;59.370;18.016;2023-12-20T08:08:04;99009.91;;;0.74;100.00
14295;BME280;7231;59.370;18.016;2023-12-20T08:10:33;99027.53;;;0.85;100.00
14295;BME280;7231;59.370;18.016;2023-12-20T08:13:01;99030.94;;;0.84;100.00
14295;BME280;7231;59.370;18.016;2023-12-20T08:15:29;99037.78;;;0.84;100.00
14295;BME280;7231;59.370;18.016;2023-12-20T08:17:57;99039.78;;;0.91;100.00
14295;BME280;7231;59.370;18.016;2023-12-20T08:20:27;99039.03;;;0.93;100.00
14295;BME280;7231;59.370;18.016;2023-12-20T08:23:05;99025.19;;;0.91;100.00
14295;BME280;7231;59.370;18.016;2023-12-20T08:25:34;99029.75;;;0.98;100.00
14295;BME280;7231;59.370;18.016;2023-12-20T08:28:02;98940.25;;;0.50;100.00
14295;BME280;7231;59.370;18.016;2023-12-20T08:30:31;99030.69;;;1.01;100.00
14295;BME280;7231;59.370;18.016;2023-12-20T08:33:00;98962.38;;;0.67;100.00
14295;BME280;7231;59.370;18.016;2023-12-20T08:35:30;99025.75;;;1.07;100.00
14295;BME280;7231;59.370;18.016;2023-12-20T08:37:58;99018.06;;;1.08;100.00
14295;BME280;7231;59.370;18.016;2023-12-20T08:40:26;99018.16;;;1.11;100.00
14295;BME280;7231;59.370;18.016;2023-12-20T08:42:54;98938.50;;;0.73;100.00
14295;BME280;7231;59.370;18.016;2023-12-20T08:45:23;99023.66;;;1.20;100.00
14295;BME280;7231;59.370;18.016;2023-12-20T08:47:51;99018.59;;;1.23;100.00
14295;BME280;7231;59.370;18.016;2023-12-20T08:50:19;99025.59;;;1.26;100.00
14295;BME280;7231;59.370;18.016;2023-12-20T08:52:49;98991.53;;;1.12;100.00
14295;BME280;7231;59.370;18.016;2023-12-20T08:55:17;99022.22;;;1.28;100.00
14295;BME280;7231;59.370;18.016;2023-12-20T08:57:45;99018.94;;;1.33;100.00
14295;BME280;7231;59.370;18.016;2023-12-20T09:00:14;99015.59;;;1.35;100.00
14295;BME280;7231;59.370;18.016;2023-12-20T09:02:43;99001.78;;;1.35;100.00
14295;BME280;7231;59.370;18.016;2023-12-20T09:05:11;99008.00;;;1.40;100.00
14295;BME280;7231;59.370;18.016;2023-12-20T09:07:38;99000.31;;;1.41;100.00
14295;BME280;7231;59.370;18.016;2023-12-20T09:10:08;98993.44;;;1.42;100.00
14295;BME280;7231;59.370;18.016;2023-12-20T09:12:36;98997.78;;;1.43;100.00
14295;BME280;7231;59.370;18.016;2023-12-20T09:15:08;98971.47;;;1.29;100.00
14295;BME280;7231;59.370;18.016;2023-12-20T09:17:36;98989.34;;;1.48;100.00
14295;BME280;7231;59.370;18.016;2023-12-20T09:20:05;98992.09;;;1.53;100.00
14295;BME280;7231;59.370;18.016;2023-12-20T09:22:35;98993.03;;;1.55;100.00
14295;BME280;7231;59.370;18.016;2023-12-20T09:25:05;98977.38;;;1.50;100.00
14295;BME280;7231;59.370;18.016;2023-12-20T09:27:35;98983.69;;;1.58;100.00
14295;BME280;7231;59.370;18.016;2023-12-20T09:30:04;98981.16;;;1.60;100.00
14295;BME280;7231;59.370;18.016;2023-12-20T09:32:33;98975.22;;;1.62;100.00
14295;BME280;7231;59.370;18.016;2023-12-20T09:35:01;98918.28;;;1.34;100.00
14295;BME280;7231;59.370;18.016;2023-12-20T09:37:32;98961.38;;;1.60;100.00
14295;BME280;7231;59.370;18.016;2023-12-20T09:40:00;98957.31;;;1.69;100.00
14295;BME280;7231;59.370;18.016;2023-12-20T09:42:37;98951.34;;;1.70;100.00
14295;BME280;7231;59.370;18.016;2023-12-20T09:45:08;98945.28;;;1.69;100.00
14295;BME280;7231;59.370;18.016;2023-12-20T09:47:37;98942.75;;;1.71;100.00
14295;BME280;7231;59.370;18.016;2023-12-20T09:50:06;98930.81;;;1.74;100.00
14295;BME280;7231;59.370;18.016;2023-12-20T09:52:36;98925.75;;;1.77;100.00
14295;BME280;7231;59.370;18.016;2023-12-20T09:55:05;98922.44;;;1.81;100.00
14295;BME280;7231;59.370;18.016;2023-12-20T09:57:33;98913.84;;;1.82;100.00
14295;BME280;7231;59.370;18.016;2023-12-20T10:00:04;98908.88;;;1.88;100.00
14295;BME280;7231;59.370;18.016;2023-12-20T10:02:38;98901.25;;;1.93;100.00
14295;BME280;7231;59.370;18.016;2023-12-20T10:05:16;98904.78;;;1.95;100.00
14295;BME280;7231;59.370;18.016;2023-12-20T10:07:46;98890.16;;;1.95;100.00
14295;BME280;7231;59.370;18.016;2023-12-20T10:10:15;98889.38;;;1.98;100.00
14295;BME280;7231;59.370;18.016;2023-12-20T10:13:01;98892.81;;;1.99;100.00
14295;BME280;7231;59.370;18.016;2023-12-20T10:15:32;98886.81;;;2.00;100.00
14295;BME280;7231;59.370;18.016;2023-12-20T10:18:00;98865.91;;;1.92;100.00
14295;BME280;7231;59.370;18.016;2023-12-20T10:20:29;98872.28;;;2.03;100.00
14295;BME280;7231;59.370;18.016;2023-12-20T10:22:57;98872.34;;;2.05;100.00
14295;BME280;7231;59.370;18.016;2023-12-20T10:25:27;98863.75;;;2.06;100.00
14295;BME280;7231;59.370;18.016;2023-12-20T10:28:09;98850.78;;;2.04;100.00
14295;BME280;7231;59.370;18.016;2023-12-20T10:30:40;98831.53;;;1.94;100.00
14295;BME280;7231;59.370;18.016;2023-12-20T10:33:10;98850.09;;;2.10;100.00
14295;BME280;7231;59.370;18.016;2023-12-20T10:35:39;98842.34;;;2.10;100.00
14295;BME280;7231;59.370;18.016;2023-12-20T10:38:14;98844.13;;;2.12;100.00
14295;BME280;7231;59.370;18.016;2023-12-20T10:40:45;98840.75;;;2.15;100.00
14295;BME280;7231;59.370;18.016;2023-12-20T10:43:13;98841.63;;;2.15;100.00
14295;BME280;7231;59.370;18.016;2023-12-20T10:45:44;98814.81;;;2.12;100.00
14295;BME280;7231;59.370;18.016;2023-12-20T10:48:12;98831.47;;;2.21;100.00
14295;BME280;7231;59.370;18.016;2023-12-20T10:50:41;98827.19;;;2.22;100.00
14295;BME280;7231;59.370;18.016;2023-12-20T10:53:09;98828.09;;;2.24;100.00
14295;BME280;7231;59.370;18.016;2023-12-20T10:55:39;98798.53;;;2.14;100.00
14295;BME280;7231;59.370;18.016;2023-12-20T10:58:08;98783.53;;;2.03;100.00
14295;BME280;7231;59.370;18.016;2023-12-20T11:00:40;98772.16;;;1.96;100.00
14295;BME280;7231;59.370;18.016;2023-12-20T11:03:11;98804.44;;;2.10;100.00
14295;BME280;7231;59.370;18.016;2023-12-20T11:05:46;98807.81;;;2.08;100.00
14295;BME280;7231;59.370;18.016;2023-12-20T11:08:22;98802.41;;;2.00;100.00
14295;BME280;7231;59.370;18.016;2023-12-20T11:10:59;98801.41;;;1.95;100.00
14295;BME280;7231;59.370;18.016;2023-12-20T11:13:34;98789.97;;;1.87;100.00
14295;BME280;7231;59.370;18.016;2023-12-20T11:16:04;98783.78;;;1.82;100.00
14295;BME280;7231;59.370;18.016;2023-12-20T11:18:34;98779.31;;;1.76;100.00
14295;BME280;7231;59.370;18.016;2023-12-20T11:21:04;98781.81;;;1.73;100.00
14295;BME280;7231;59.370;18.016;2023-12-20T11:23:33;98766.09;;;1.66;100.00
14295;BME280;7231;59.370;18.016;2023-12-20T11:26:02;98773.88;;;1.67;100.00
14295;BME280;7231;59.370;18.016;2023-12-20T11:28:30;98767.84;;;1.67;100.00
14295;BME280;7231;59.370;18.016;2023-12-20T11:31:01;98748.69;;;1.60;100.00
14295;BME280;7231;59.370;18.016;2023-12-20T11:33:32;98749.53;;;1.59;100.00
14295;BME280;7231;59.370;18.016;2023-12-20T11:36:14;98748.13;;;1.70;100.00
14295;BME280;7231;59.370;18.016;2023-12-20T11:38:54;98746.44;;;1.71;100.00
14295;BME280;7231;59.370;18.016;2023-12-20T11:41:24;98751.69;;;1.74;100.00
14295;BME280;7231;59.370;18.016;2023-12-20T11:43:53;98737.09;;;1.76;100.00
14295;BME280;7231;59.370;18.016;2023-12-20T11:46:22;98739.78;;;1.79;100.00
14295;BME280;7231;59.370;18.016;2023-12-20T11:48:51;98725.16;;;1.79;100.00
14295;BME280;7231;59.370;18.016;2023-12-20T11:51:21;98727.78;;;1.81;100.00
14295;BME280;7231;59.370;18.016;2023-12-20T11:53:51;98705.97;;;1.71;100.00
14295;BME280;7231;59.370;18.016;2023-12-20T11:56:20;98717.38;;;1.78;100.00
14295;BME280;7231;59.370;18.016;2023-12-20T11:58:48;98716.44;;;1.76;100.00
14295;BME280;7231;59.370;18.016;2023-12-20T12:01:19;98715.59;;;1.77;100.00
14295;BME280;7231;59.370;18.016;2023-12-20T12:03:48;98711.19;;;1.73;100.00
14295;BME280;7231;59.370;18.016;2023-12-20T12:06:16;98711.09;;;1.70;100.00
14295;BME280;7231;59.370;18.016;2023-12-20T12:08:46;98703.34;;;1.70;100.00
14295;BME280;7231;59.370;18.016;2023-12-20T12:11:14;98706.81;;;1.70;100.00
14295;BME280;7231;59.370;18.016;2023-12-20T12:13:42;98702.34;;;1.65;100.00
14295;BME280;7231;59.370;18.016;2023-12-20T12:16:10;98698.88;;;1.64;100.00
14295;BME280;7231;59.370;18.016;2023-12-20T12:18:39;98685.84;;;1.59;100.00
14295;BME280;7231;59.370;18.016;2023-12-20T12:21:08;98624.50;;;1.22;100.00
14295;BME280;7231;59.370;18.016;2023-12-20T12:23:46;98657.00;;;1.44;100.00
14295;BME280;7231;59.370;18.016;2023-12-20T12:26:14;98688.41;;;1.59;100.00
14295;BME280;7231;59.370;18.016;2023-12-20T12:28:42;98688.34;;;1.56;100.00
14295;BME280;7231;59.370;18.016;2023-12-20T12:31:14;98682.16;;;1.51;100.00
14295;BME280;7231;59.370;18.016;2023-12-20T12:33:43;98683.00;;;1.50;100.00
14295;BME280;7231;59.370;18.016;2023-12-20T12:36:12;98686.41;;;1.49;100.00
14295;BME280;7231;59.370;18.016;2023-12-20T12:38:42;98678.53;;;1.45;100.00
14295;BME280;7231;59.370;18.016;2023-12-20T12:41:14;98671.50;;;1.41;100.00
14295;BME280;7231;59.370;18.016;2023-12-20T12:43:43;98627.59;;;1.11;100.00
14295;BME280;7231;59.370;18.016;2023-12-20T12:46:11;98660.97;;;1.33;100.00
14295;BME280;7231;59.370;18.016;2023-12-20T12:48:39;98665.16;;;1.29;100.00
14295;BME280;7231;59.370;18.016;2023-12-20T12:51:12;98669.34;;;1.26;100.00
14295;BME280;7231;59.370;18.016;2023-12-20T12:53:40;98662.41;;;1.23;100.00
14295;BME280;7231;59.370;18.016;2023-12-20T12:56:09;98661.53;;;1.23;100.00
14295;BME280;7231;59.370;18.016;2023-12-20T12:58:38;98652.03;;;1.22;100.00
14295;BME280;7231;59.370;18.016;2023-12-20T13:01:07;98652.06;;;1.23;100.00
14295;BME280;7231;59.370;18.016;2023-12-20T13:03:35;98651.09;;;1.20;100.00
14295;BME280;7231;59.370;18.016;2023-12-20T13:06:04;98648.47;;;1.18;100.00
14295;BME280;7231;59.370;18.016;2023-12-20T13:08:32;98641.56;;;1.17;100.00